Terminal Aerodrome Forecast
Issued by NWS

Home | Current Version | Previous Version | Text Only | Print | Product List | Glossary Off
Versions: 1 2 3 4 5 6 7 8 9 10 11 12 13 14 15 16 17 18 19 20 21 22

045
FTUS43 KOAX 241734
TAFCDR
TAF
KCDR 241734Z 2418/2518 02008KT P6SM SCT015 OVC025
     FM250200 03008KT P6SM VCSH OVC015
     FM250700 36004KT 6SM BR OVC007=

USA.gov is the U.S. government's official web portal to all federal, state and local government web resources and services.